Time;durP1;ratioP1;P1;durP2;ratioP2;P2;SDS_P1;SDS_P2;PMS_P1;PMS_P2;Temp;Humidity;BMP_temperature;BMP_pressure;BME280_temperature;BME280_humidity;BME280_pressure;Samples;Min_cycle;Max_cycle;Signal;HPM_P1;HPM_P2
2022/09/24 00:01:59;;;;;;;;;;;8.30;99.90;;;;;;4181060;28;19935;-58
2022/09/24 00:04:23;;;;;;;;;;;8.20;99.90;;;;;;4180421;28;19935;-58
2022/09/24 00:06:44;;;;;;;;;;;8.20;99.90;;;;;;4180581;28;20275;-59
2022/09/24 00:09:04;;;;;;;;;;;8.10;99.90;;;;;;4180587;28;19931;-58
2022/09/24 00:11:26;;;;;;;;;;;8.00;99.90;;;;;;4180456;28;19992;-58
2022/09/24 00:13:46;;;;;;;;;;;8.00;99.90;;;;;;4180726;28;19931;-58
2022/09/24 00:16:08;;;;;;;;;;;8.00;99.90;;;;;;4180494;28;20008;-59
2022/09/24 00:18:29;;;;;;;;;;;8.10;99.90;;;;;;4180352;28;20354;-59
2022/09/24 00:20:49;;;;;;;;;;;8.20;99.90;;;;;;4180697;28;20383;-58
2022/09/24 00:23:10;;;;;;;;;;;8.20;99.90;;;;;;4180487;28;19947;-59
2022/09/24 00:28:11;;;;;;;;;;;8.20;99.90;;;;;;4180318;28;20713;-58
2022/09/24 00:30:31;;;;;;;;;;;8.00;99.90;;;;;;4180837;28;19935;-58
2022/09/24 00:32:51;;;;;;;;;;;7.90;99.90;;;;;;4180183;28;19994;-58
2022/09/24 00:35:11;;;;;;;;;;;7.60;99.90;;;;;;4180224;28;19975;-59
2022/09/24 00:37:31;;;;;;;;;;;7.80;99.90;;;;;;4180402;28;19935;-59
2022/09/24 00:39:52;;;;;;;;;;;7.70;99.90;;;;;;4180338;28;19931;-58
2022/09/24 00:42:12;;;;;;;;;;;7.80;99.90;;;;;;4180122;28;20407;-58
2022/09/24 00:44:42;;;;;;;;;;;7.70;99.90;;;;;;4180201;28;19936;-57
2022/09/24 00:47:02;;;;;;;;;;;7.70;99.90;;;;;;4180858;28;20458;-58
2022/09/24 00:49:23;;;;;;;;;;;7.60;99.90;;;;;;4180481;28;20086;-58
2022/09/24 00:51:45;;;;;;;;;;;7.80;99.90;;;;;;4189065;28;20012;-58
2022/09/24 00:54:08;;;;;;;;;;;7.90;99.90;;;;;;4188058;28;19971;-59
2022/09/24 00:56:31;;;;;;;;;;;7.80;99.90;;;;;;4179857;28;19999;-58
2022/09/24 00:58:53;;;;;;;;;;;7.50;99.90;;;;;;4180361;28;19936;-59
2022/09/24 01:01:14;;;;;;;;;;;7.70;99.90;;;;;;4182991;28;20434;-58
2022/09/24 01:03:39;;;;;;;;;;;7.70;99.90;;;;;;4183043;28;19983;-59
2022/09/24 01:06:00;;;;;;;;;;;7.60;99.90;;;;;;4183258;28;19943;-59
2022/09/24 01:08:21;;;;;;;;;;;7.50;99.90;;;;;;4183420;28;19932;-58
2022/09/24 01:10:53;;;;;;;;;;;7.50;99.90;;;;;;4182896;28;20448;-58
2022/09/24 01:13:29;;;;;;;;;;;7.50;99.90;;;;;;4183341;28;19931;-59
2022/09/24 01:16:02;;;;;;;;;;;7.30;99.90;;;;;;4183279;28;20456;-59
2022/09/24 01:18:25;;;;;;;;;;;7.40;99.90;;;;;;4182959;28;19932;-59
2022/09/24 01:20:51;;;;;;;;;;;7.30;99.90;;;;;;4183283;28;20004;-58
2022/09/24 01:23:15;;;;;;;;;;;7.30;99.90;;;;;;4183192;28;19931;-59
2022/09/24 01:25:38;;;;;;;;;;;7.30;99.90;;;;;;4182840;28;19978;-58
2022/09/24 01:28:18;;;;;;;;;;;7.40;99.90;;;;;;4183165;28;19965;-59
2022/09/24 01:30:40;;;;;;;;;;;7.40;99.90;;;;;;4183160;28;19979;-59
2022/09/24 01:33:03;;;;;;;;;;;7.00;99.90;;;;;;4182944;28;20005;-58
2022/09/24 01:35:33;;;;;;;;;;;7.10;99.90;;;;;;4182384;28;20406;-58
2022/09/24 01:37:56;;;;;;;;;;;7.00;99.90;;;;;;4182812;28;20020;-59
2022/09/24 01:40:17;;;;;;;;;;;6.90;99.90;;;;;;4182626;28;20414;-57
2022/09/24 01:42:39;;;;;;;;;;;6.80;99.90;;;;;;4195305;28;19931;-58
2022/09/24 01:45:00;;;;;;;;;;;6.90;99.90;;;;;;4191475;28;19971;-58
2022/09/24 01:47:29;;;;;;;;;;;6.80;99.90;;;;;;4188482;28;19973;-58
2022/09/24 01:49:53;;;;;;;;;;;6.90;99.90;;;;;;4182439;28;19979;-58
2022/09/24 01:52:17;;;;;;;;;;;6.90;99.90;;;;;;4182642;28;19935;-58
2022/09/24 01:54:40;;;;;;;;;;;7.00;99.90;;;;;;4182528;28;19979;-58
2022/09/24 01:57:21;;;;;;;;;;;7.00;99.90;;;;;;4182267;28;20292;-58
2022/09/24 01:59:46;;;;;;;;;;;7.10;99.90;;;;;;4182661;28;19962;-58
2022/09/24 02:02:14;;;;;;;;;;;7.00;99.90;;;;;;4182147;28;20000;-59
2022/09/24 02:04:41;;;;;;;;;;;7.00;99.90;;;;;;4182365;28;19935;-59
2022/09/24 02:07:10;;;;;;;;;;;6.90;99.90;;;;;;4182197;28;19982;-58
2022/09/24 02:09:35;;;;;;;;;;;6.90;99.90;;;;;;4182291;28;19936;-58
2022/09/24 02:11:58;;;;;;;;;;;6.90;99.90;;;;;;4180827;28;20500;-59
2022/09/24 02:14:19;;;;;;;;;;;6.80;99.90;;;;;;4182240;28;19939;-57
2022/09/24 02:16:44;;;;;;;;;;;6.70;99.90;;;;;;4181927;28;20491;-58
2022/09/24 02:19:06;;;;;;;;;;;6.90;99.90;;;;;;4182087;28;19935;-57
2022/09/24 02:21:28;;;;;;;;;;;6.90;99.90;;;;;;4181994;28;19994;-59
2022/09/24 02:24:09;;;;;;;;;;;7.00;99.90;;;;;;4181880;28;19935;-58
2022/09/24 02:26:29;;;;;;;;;;;7.00;99.90;;;;;;4181913;28;19932;-59
2022/09/24 02:28:51;;;;;;;;;;;7.00;99.90;;;;;;4181995;28;19995;-58
2022/09/24 02:31:17;;;;;;;;;;;7.10;99.90;;;;;;4181788;28;19931;-58
2022/09/24 02:36:19;;;;;;;;;;;6.70;99.90;;;;;;4181569;28;19974;-59
2022/09/24 02:38:39;;;;;;;;;;;6.70;99.90;;;;;;4181886;28;19932;-59
2022/09/24 02:41:00;;;;;;;;;;;6.50;99.90;;;;;;4181760;28;19990;-59
2022/09/24 02:43:20;;;;;;;;;;;6.50;99.90;;;;;;4183211;28;19936;-59
2022/09/24 02:45:41;;;;;;;;;;;6.50;99.90;;;;;;4189892;28;20020;-58
2022/09/24 02:48:01;;;;;;;;;;;6.60;99.90;;;;;;4192163;28;19930;-58
2022/09/24 02:50:21;;;;;;;;;;;6.50;99.90;;;;;;4181975;28;19994;-58
2022/09/24 02:52:43;;;;;;;;;;;6.50;99.90;;;;;;4181501;28;20411;-59
2022/09/24 02:55:03;;;;;;;;;;;6.50;99.90;;;;;;4181477;28;19936;-58
2022/09/24 02:57:24;;;;;;;;;;;6.50;99.90;;;;;;4181847;28;20044;-58
2022/09/24 02:59:45;;;;;;;;;;;6.40;99.90;;;;;;4181391;28;19931;-58
2022/09/24 03:02:06;;;;;;;;;;;6.50;99.90;;;;;;4181291;28;19967;-58
2022/09/24 03:04:28;;;;;;;;;;;6.40;99.90;;;;;;4181024;28;19939;-58
2022/09/24 03:06:48;;;;;;;;;;;6.40;99.90;;;;;;4181302;28;19933;-58
2022/09/24 03:09:10;;;;;;;;;;;6.40;99.90;;;;;;4181295;28;19940;-58
2022/09/24 03:11:31;;;;;;;;;;;6.30;99.90;;;;;;4180970;28;19932;-58
2022/09/24 03:13:52;;;;;;;;;;;6.30;99.90;;;;;;4181309;28;19954;-58
2022/09/24 03:16:12;;;;;;;;;;;6.20;99.90;;;;;;4181197;28;19932;-57
2022/09/24 03:18:33;;;;;;;;;;;6.10;99.90;;;;;;4181350;28;20334;-58
2022/09/24 03:21:04;;;;;;;;;;;6.10;99.90;;;;;;4180928;28;20403;-58
2022/09/24 03:23:25;;;;;;;;;;;6.20;99.90;;;;;;4180790;28;20040;-58
2022/09/24 03:25:45;;;;;;;;;;;6.20;99.90;;;;;;4181082;28;19970;-58
2022/09/24 03:28:06;;;;;;;;;;;6.30;99.90;;;;;;4181046;28;20037;-58
2022/09/24 03:33:05;;;;;;;;;;;6.40;99.90;;;;;;4180620;28;19982;-58
2022/09/24 03:35:25;;;;;;;;;;;6.40;99.90;;;;;;4166043;28;20527;-58
2022/09/24 03:37:46;;;;;;;;;;;6.40;99.90;;;;;;4180985;28;19931;-58
2022/09/24 03:40:09;;;;;;;;;;;6.40;99.90;;;;;;4187299;28;20006;-59
2022/09/24 03:42:29;;;;;;;;;;;6.30;99.90;;;;;;4193645;28;19935;-58
2022/09/24 03:44:51;;;;;;;;;;;6.20;99.90;;;;;;4180760;28;19935;-59
2022/09/24 03:47:12;;;;;;;;;;;6.20;99.90;;;;;;4186028;28;19970;-61
2022/09/24 03:49:32;;;;;;;;;;;6.20;99.90;;;;;;4188287;28;19935;-61
2022/09/24 03:51:52;;;;;;;;;;;6.40;99.90;;;;;;4180498;28;19932;-61
2022/09/24 03:54:13;;;;;;;;;;;6.40;99.90;;;;;;4180792;28;19932;-61
2022/09/24 03:56:33;;;;;;;;;;;6.30;99.90;;;;;;4180579;28;19978;-61
2022/09/24 03:58:54;;;;;;;;;;;6.40;99.90;;;;;;4180291;28;19935;-61
2022/09/24 04:01:19;;;;;;;;;;;6.30;99.90;;;;;;4180431;28;20294;-61
2022/09/24 04:03:39;;;;;;;;;;;6.40;99.90;;;;;;4180649;28;19931;-61
2022/09/24 04:06:00;;;;;;;;;;;6.50;99.90;;;;;;4180497;28;19931;-61
2022/09/24 04:08:22;;;;;;;;;;;6.40;99.90;;;;;;4180749;28;19974;-60
2022/09/24 04:10:43;;;;;;;;;;;6.50;99.90;;;;;;4180201;28;19987;-60
2022/09/24 04:13:04;;;;;;;;;;;6.60;99.90;;;;;;4180973;28;20008;-61
2022/09/24 04:15:24;;;;;;;;;;;6.50;99.90;;;;;;4180099;28;20293;-60
2022/09/24 04:17:49;;;;;;;;;;;6.50;99.90;;;;;;4180314;28;19971;-60
2022/09/24 04:20:11;;;;;;;;;;;6.70;99.90;;;;;;4180258;28;19936;-60
2022/09/24 04:22:32;;;;;;;;;;;6.60;99.90;;;;;;4180578;28;19971;-61
2022/09/24 04:24:52;;;;;;;;;;;6.50;99.90;;;;;;4180188;28;19932;-61
2022/09/24 04:27:13;;;;;;;;;;;6.40;99.90;;;;;;4180341;28;19955;-61
2022/09/24 04:29:33;;;;;;;;;;;6.40;99.90;;;;;;4180629;28;19974;-61
2022/09/24 04:31:53;;;;;;;;;;;6.30;99.90;;;;;;4180951;28;19978;-61
2022/09/24 04:34:14;;;;;;;;;;;6.30;99.90;;;;;;4180666;28;19948;-61
2022/09/24 04:36:34;;;;;;;;;;;6.30;99.90;;;;;;4188782;28;19982;-61
2022/09/24 04:38:55;;;;;;;;;;;6.30;99.90;;;;;;4183984;28;20010;-61
2022/09/24 04:41:16;;;;;;;;;;;6.20;99.90;;;;;;4183434;28;20012;-61
2022/09/24 04:43:36;;;;;;;;;;;6.10;99.90;;;;;;4183629;28;19931;-61
2022/09/24 04:45:58;;;;;;;;;;;6.10;99.90;;;;;;4183549;28;19971;-61
2022/09/24 04:48:18;;;;;;;;;;;6.10;99.90;;;;;;4199718;28;20024;-60
2022/09/24 04:50:38;;;;;;;;;;;6.00;99.90;;;;;;4186766;28;19940;-61
2022/09/24 04:53:05;;;;;;;;;;;6.00;99.90;;;;;;4183565;28;19986;-61
2022/09/24 04:55:26;;;;;;;;;;;5.90;99.90;;;;;;4183418;28;19935;-61
2022/09/24 04:57:47;;;;;;;;;;;6.00;99.90;;;;;;4183611;28;20408;-61
2022/09/24 05:00:09;;;;;;;;;;;6.00;99.90;;;;;;4183372;28;19931;-61
2022/09/24 05:02:30;;;;;;;;;;;5.90;99.90;;;;;;4183064;28;19935;-60
2022/09/24 05:04:50;;;;;;;;;;;6.00;99.90;;;;;;4183357;28;20375;-61
2022/09/24 05:07:10;;;;;;;;;;;6.00;99.90;;;;;;4183486;28;20292;-61
2022/09/24 05:09:31;;;;;;;;;;;6.20;99.90;;;;;;4183380;28;19951;-61
2022/09/24 05:11:52;;;;;;;;;;;6.10;99.90;;;;;;4183223;28;19939;-61
2022/09/24 05:14:12;;;;;;;;;;;6.20;99.90;;;;;;4183409;28;19952;-60
2022/09/24 05:16:33;;;;;;;;;;;6.20;99.90;;;;;;4190006;28;20452;-61
2022/09/24 05:18:54;;;;;;;;;;;6.20;99.90;;;;;;4185045;28;19962;-61
2022/09/24 05:21:14;;;;;;;;;;;6.00;99.90;;;;;;4183014;28;19982;-61
2022/09/24 05:23:35;;;;;;;;;;;5.90;99.90;;;;;;4183414;28;20023;-61
2022/09/24 05:28:36;;;;;;;;;;;5.70;99.90;;;;;;4188433;28;19974;-61
2022/09/24 05:30:57;;;;;;;;;;;5.50;99.90;;;;;;4184374;28;19931;-60
2022/09/24 05:33:17;;;;;;;;;;;5.50;99.90;;;;;;4194671;28;20028;-61
2022/09/24 05:35:37;;;;;;;;;;;5.50;99.90;;;;;;4182991;28;19939;-60
2022/09/24 05:37:58;;;;;;;;;;;5.50;99.90;;;;;;4182828;28;20030;-60
2022/09/24 05:43:00;;;;;;;;;;;5.90;99.90;;;;;;4182682;28;19932;-60
2022/09/24 05:45:20;;;;;;;;;;;6.00;99.90;;;;;;4182233;28;19936;-59
2022/09/24 05:47:41;;;;;;;;;;;6.20;99.90;;;;;;4191886;28;19931;-59
2022/09/24 05:50:01;;;;;;;;;;;6.40;99.90;;;;;;4196002;28;19932;-60
2022/09/24 05:52:21;;;;;;;;;;;6.40;99.90;;;;;;4184833;28;19979;-60
2022/09/24 05:54:41;;;;;;;;;;;6.40;99.90;;;;;;4185545;28;20524;-60
2022/09/24 05:57:01;;;;;;;;;;;6.50;99.90;;;;;;4182432;28;20331;-60
2022/09/24 05:59:23;;;;;;;;;;;6.60;99.90;;;;;;4182185;28;20011;-60
2022/09/24 06:01:43;;;;;;;;;;;6.70;99.90;;;;;;4182301;28;19959;-60
2022/09/24 06:04:04;;;;;;;;;;;6.70;99.90;;;;;;4182081;28;19931;-60
2022/09/24 06:06:28;;;;;;;;;;;6.90;99.90;;;;;;4181978;28;19982;-60
2022/09/24 06:08:48;;;;;;;;;;;7.00;99.90;;;;;;4182134;28;20373;-60
2022/09/24 06:11:09;;;;;;;;;;;7.30;99.90;;;;;;4182299;28;20338;-59
2022/09/24 06:13:31;;;;;;;;;;;7.40;99.90;;;;;;4182046;28;19936;-60
2022/09/24 06:15:51;;;;;;;;;;;7.60;99.90;;;;;;4182292;28;20016;-59
2022/09/24 06:18:12;;;;;;;;;;;7.80;99.90;;;;;;4182104;28;19932;-60
2022/09/24 06:20:33;;;;;;;;;;;8.00;99.90;;;;;;4181994;28;19935;-59
2022/09/24 06:22:53;;;;;;;;;;;8.10;99.90;;;;;;4182081;28;19998;-60
2022/09/24 06:25:14;;;;;;;;;;;8.00;99.90;;;;;;4183369;28;20023;-60
2022/09/24 06:27:35;;;;;;;;;;;8.00;99.90;;;;;;4184698;28;20503;-59
2022/09/24 06:29:55;;;;;;;;;;;8.00;99.90;;;;;;4181719;28;20455;-60
2022/09/24 06:32:17;;;;;;;;;;;8.00;99.90;;;;;;4191459;28;19970;-60
2022/09/24 06:34:37;;;;;;;;;;;8.00;99.90;;;;;;4192454;28;19993;-60
2022/09/24 06:36:58;;;;;;;;;;;8.00;99.90;;;;;;4181960;28;19951;-60
2022/09/24 06:39:18;;;;;;;;;;;8.10;99.90;;;;;;4181905;28;20319;-60
2022/09/24 06:41:38;;;;;;;;;;;8.20;99.90;;;;;;4181744;28;19978;-60
2022/09/24 06:43:58;;;;;;;;;;;8.30;99.90;;;;;;4181550;28;19932;-60
2022/09/24 06:46:21;;;;;;;;;;;8.30;99.90;;;;;;4181487;28;20006;-60
2022/09/24 06:48:42;;;;;;;;;;;8.40;99.90;;;;;;4181387;28;19979;-60
2022/09/24 06:51:03;;;;;;;;;;;8.60;99.90;;;;;;4181438;28;19932;-60
2022/09/24 06:53:24;;;;;;;;;;;8.80;99.90;;;;;;4181560;28;20438;-59
2022/09/24 06:55:44;;;;;;;;;;;8.90;99.90;;;;;;4181417;28;19955;-60
2022/09/24 06:58:10;;;;;;;;;;;9.20;99.90;;;;;;4180654;28;20396;-60
2022/09/24 07:00:30;;;;;;;;;;;9.20;99.90;;;;;;4183413;28;20403;-60
2022/09/24 07:02:51;;;;;;;;;;;9.40;99.90;;;;;;4194055;28;19935;-60
2022/09/24 07:05:11;;;;;;;;;;;9.50;99.90;;;;;;4184572;28;20315;-60
2022/09/24 07:07:34;;;;;;;;;;;9.70;99.90;;;;;;4193152;28;20346;-60
2022/09/24 07:09:59;;;;;;;;;;;9.90;99.90;;;;;;4193322;28;19932;-60
2022/09/24 07:12:19;;;;;;;;;;;10.00;99.90;;;;;;4181252;28;19975;-60
2022/09/24 07:14:40;;;;;;;;;;;10.30;99.90;;;;;;4181601;28;19931;-60
2022/09/24 07:17:00;;;;;;;;;;;10.40;99.90;;;;;;4181138;28;19935;-60
2022/09/24 07:19:21;;;;;;;;;;;10.50;99.90;;;;;;4180965;28;19939;-60
2022/09/24 07:21:41;;;;;;;;;;;10.60;99.90;;;;;;4181323;28;19932;-60
2022/09/24 07:24:01;;;;;;;;;;;10.60;99.90;;;;;;4191603;28;19932;-60
2022/09/24 07:26:22;;;;;;;;;;;10.80;99.90;;;;;;4186359;28;19931;-59
2022/09/24 07:28:42;;;;;;;;;;;10.90;99.90;;;;;;4181113;28;19931;-60
2022/09/24 07:31:03;;;;;;;;;;;11.00;99.90;;;;;;4187777;28;19965;-59
2022/09/24 07:33:23;;;;;;;;;;;11.00;99.90;;;;;;4182173;28;19936;-60
2022/09/24 07:35:43;;;;;;;;;;;11.10;99.90;;;;;;4189984;28;19936;-60
2022/09/24 07:38:04;;;;;;;;;;;11.20;99.90;;;;;;4180940;28;20021;-60
2022/09/24 07:40:25;;;;;;;;;;;11.30;99.90;;;;;;4181288;28;19978;-60
2022/09/24 07:42:47;;;;;;;;;;;11.30;99.90;;;;;;4180499;28;19940;-60
2022/09/24 07:45:07;;;;;;;;;;;11.40;99.90;;;;;;4180677;28;19986;-60
2022/09/24 07:47:38;;;;;;;;;;;11.50;99.90;;;;;;4187953;28;20391;-60
2022/09/24 07:49:58;;;;;;;;;;;11.80;99.90;;;;;;4180876;28;19939;-60
2022/09/24 07:52:18;;;;;;;;;;;12.10;99.90;;;;;;4180685;28;19935;-60
2022/09/24 07:54:39;;;;;;;;;;;12.40;99.90;;;;;;4180638;28;19971;-60
2022/09/24 07:57:01;;;;;;;;;;;12.50;99.90;;;;;;4180638;28;19975;-60
2022/09/24 07:59:22;;;;;;;;;;;12.60;99.90;;;;;;4180482;28;19935;-60
2022/09/24 08:01:42;;;;;;;;;;;12.70;99.90;;;;;;4180514;28;19947;-60
2022/09/24 08:04:06;;;;;;;;;;;12.90;99.90;;;;;;4180564;28;20012;-60
2022/09/24 08:06:26;;;;;;;;;;;12.90;99.90;;;;;;4180381;28;20045;-59
2022/09/24 08:08:51;;;;;;;;;;;12.90;99.90;;;;;;4179953;28;19931;-60
2022/09/24 08:11:12;;;;;;;;;;;12.80;99.90;;;;;;4183842;28;20312;-61
2022/09/24 08:13:33;;;;;;;;;;;12.80;99.90;;;;;;4180837;28;19994;-60
2022/09/24 08:15:58;;;;;;;;;;;12.80;99.90;;;;;;4184617;28;19982;-61
2022/09/24 08:18:19;;;;;;;;;;;12.90;99.90;;;;;;4180216;28;19932;-60
2022/09/24 08:20:39;;;;;;;;;;;12.90;99.90;;;;;;4180475;28;19975;-60
2022/09/24 08:23:04;;;;;;;;;;;12.90;99.90;;;;;;4194645;28;19971;-61
2022/09/24 08:25:24;;;;;;;;;;;13.10;99.90;;;;;;4185192;28;20013;-60
2022/09/24 08:27:45;;;;;;;;;;;13.10;99.90;;;;;;4180295;28;19975;-60
2022/09/24 08:30:06;;;;;;;;;;;13.10;99.90;;;;;;4180477;28;19989;-60
2022/09/24 08:32:26;;;;;;;;;;;13.10;99.90;;;;;;4180470;28;20426;-60
2022/09/24 08:34:46;;;;;;;;;;;13.20;99.90;;;;;;4186890;28;19932;-60
2022/09/24 08:37:07;;;;;;;;;;;13.10;99.90;;;;;;4181796;28;19932;-60
2022/09/24 08:39:27;;;;;;;;;;;13.20;99.90;;;;;;4183693;28;19932;-61
2022/09/24 08:41:53;;;;;;;;;;;13.20;99.90;;;;;;4189480;28;20365;-60
2022/09/24 08:47:21;;;;;;;;;;;13.30;99.90;;;;;;4189580;28;19935;-60
2022/09/24 08:47:22;;;;;;;;;;;13.40;99.90;;;;;;4181279;28;19986;-60
2022/09/24 08:49:46;;;;;;;;;;;13.30;99.90;;;;;;4189463;28;19936;-60
2022/09/24 08:52:26;;;;;;;;;;;13.40;99.90;;;;;;4186481;28;19932;-60
2022/09/24 08:54:48;;;;;;;;;;;13.40;99.90;;;;;;4146192;28;20009;-60
2022/09/24 08:57:14;;;;;;;;;;;13.50;99.90;;;;;;4180631;28;19935;-60
2022/09/24 08:59:36;;;;;;;;;;;13.80;99.90;;;;;;4182349;28;20355;-60
2022/09/24 09:02:19;;;;;;;;;;;14.10;99.90;;;;;;4182915;28;19948;-60
2022/09/24 09:04:40;;;;;;;;;;;14.40;99.90;;;;;;4177432;28;19936;-60
2022/09/24 09:07:14;;;;;;;;;;;14.50;99.90;;;;;;4180857;28;20033;-60
2022/09/24 09:09:35;;;;;;;;;;;14.40;99.90;;;;;;4188058;28;19940;-60
2022/09/24 09:12:00;;;;;;;;;;;14.40;99.90;;;;;;4181758;28;20068;-60
2022/09/24 09:14:39;;;;;;;;;;;14.40;99.90;;;;;;4183445;28;20593;-60
2022/09/24 09:17:03;;;;;;;;;;;14.40;99.90;;;;;;4186230;28;19977;-60
2022/09/24 09:19:26;;;;;;;;;;;14.40;99.90;;;;;;4186100;28;19935;-60
2022/09/24 09:21:52;;;;;;;;;;;14.40;99.90;;;;;;4185655;28;20329;-61
2022/09/24 09:24:17;;;;;;;;;;;14.50;99.90;;;;;;4184686;28;19932;-60
2022/09/24 09:26:37;;;;;;;;;;;14.60;99.90;;;;;;4185213;28;19959;-60
2022/09/24 09:28:59;;;;;;;;;;;14.80;99.90;;;;;;4182953;28;20384;-60
2022/09/24 09:31:23;;;;;;;;;;;14.80;99.90;;;;;;4181478;28;19982;-60
2022/09/24 09:34:03;;;;;;;;;;;14.80;99.90;;;;;;4182545;28;19974;-60
2022/09/24 09:36:33;;;;;;;;;;;14.80;99.90;;;;;;4191065;28;19978;-60
2022/09/24 09:39:02;;;;;;;;;;;14.60;99.90;;;;;;4182633;28;19971;-58
2022/09/24 09:41:38;;;;;;;;;;;14.60;99.90;;;;;;4182718;28;19935;-58
2022/09/24 09:44:00;;;;;;;;;;;15.00;99.90;;;;;;4182749;28;20293;-57
2022/09/24 09:46:26;;;;;;;;;;;15.10;99.90;;;;;;4183167;28;19936;-57
2022/09/24 09:48:54;;;;;;;;;;;15.30;99.90;;;;;;4183030;28;19935;-57
2022/09/24 09:51:18;;;;;;;;;;;15.40;99.90;;;;;;4183859;28;20192;-58
2022/09/24 09:53:52;;;;;;;;;;;15.50;99.90;;;;;;4195758;28;20015;-58
2022/09/24 09:56:12;;;;;;;;;;;15.60;99.90;;;;;;4191003;28;19938;-58
2022/09/24 09:58:34;;;;;;;;;;;15.60;99.90;;;;;;4182517;28;19931;-58
2022/09/24 10:01:21;;;;;;;;;;;15.70;99.90;;;;;;4184413;28;19931;-58
2022/09/24 10:03:45;;;;;;;;;;;15.80;99.90;;;;;;4182626;28;20022;-58
2022/09/24 10:06:06;;;;;;;;;;;15.90;99.90;;;;;;4181620;28;20028;-58
2022/09/24 10:08:26;;;;;;;;;;;15.80;99.90;;;;;;4173382;28;19932;-58
2022/09/24 10:10:54;;;;;;;;;;;16.00;99.90;;;;;;4195032;28;20426;-58
2022/09/24 10:13:14;;;;;;;;;;;16.20;99.90;;;;;;4182262;28;19974;-58
2022/09/24 10:15:38;;;;;;;;;;;16.30;99.90;;;;;;4188606;28;20462;-58
2022/09/24 10:18:04;;;;;;;;;;;16.30;99.90;;;;;;4182120;28;20553;-58
2022/09/24 10:20:31;;;;;;;;;;;16.30;99.90;;;;;;4182752;28;20531;-58
2022/09/24 10:22:53;;;;;;;;;;;16.30;99.90;;;;;;4182140;28;20454;-58
2022/09/24 10:25:19;;;;;;;;;;;16.30;99.90;;;;;;4182089;28;19940;-58
2022/09/24 10:27:40;;;;;;;;;;;16.50;99.90;;;;;;4182839;28;20288;-58
2022/09/24 10:32:40;;;;;;;;;;;16.60;99.90;;;;;;4186608;28;20293;-58
2022/09/24 10:35:02;;;;;;;;;;;16.70;99.90;;;;;;4181897;28;20403;-57
2022/09/24 10:37:22;;;;;;;;;;;16.70;99.90;;;;;;4181927;28;20347;-57
2022/09/24 10:39:42;;;;;;;;;;;16.70;99.90;;;;;;4181440;28;20465;-58
2022/09/24 10:42:04;;;;;;;;;;;16.80;99.90;;;;;;4189940;28;19975;-57
2022/09/24 10:44:29;;;;;;;;;;;16.90;99.90;;;;;;4184880;28;20481;-57
2022/09/24 10:47:06;;;;;;;;;;;16.80;99.90;;;;;;4181200;28;19951;-58
2022/09/24 10:49:27;;;;;;;;;;;16.90;99.90;;;;;;4190931;28;19997;-57
2022/09/24 10:51:55;;;;;;;;;;;16.90;99.90;;;;;;4197546;28;19934;-57
2022/09/24 10:54:15;;;;;;;;;;;16.80;99.90;;;;;;4191666;28;20402;-57
2022/09/24 10:56:37;;;;;;;;;;;16.80;99.90;;;;;;4197952;28;20052;-58
2022/09/24 10:59:08;;;;;;;;;;;17.00;99.90;;;;;;4195628;28;20010;-58
2022/09/24 11:01:29;;;;;;;;;;;17.20;99.90;;;;;;4186029;28;19946;-58
2022/09/24 11:04:16;;;;;;;;;;;17.30;99.90;;;;;;4181730;28;20373;-57
2022/09/24 11:06:47;;;;;;;;;;;17.40;99.90;;;;;;4179280;28;19959;-58
2022/09/24 11:09:14;;;;;;;;;;;17.50;99.90;;;;;;4183858;28;20304;-58
2022/09/24 11:11:44;;;;;;;;;;;17.50;99.90;;;;;;4189998;28;20401;-58
2022/09/24 11:14:30;;;;;;;;;;;17.40;99.90;;;;;;4182160;28;19982;-57
2022/09/24 11:16:56;;;;;;;;;;;17.40;99.90;;;;;;4180971;28;20012;-57
2022/09/24 11:19:32;;;;;;;;;;;17.50;99.90;;;;;;4180964;28;19936;-57
2022/09/24 11:21:56;;;;;;;;;;;17.50;99.90;;;;;;4183686;28;20052;-57
2022/09/24 11:24:23;;;;;;;;;;;17.50;99.90;;;;;;4189863;28;19934;-58
2022/09/24 11:27:02;;;;;;;;;;;17.60;99.90;;;;;;4188231;28;20429;-56
2022/09/24 11:29:37;;;;;;;;;;;17.80;99.90;;;;;;4183730;28;19963;-56
2022/09/24 11:32:24;;;;;;;;;;;17.80;99.90;;;;;;4191770;28;20463;-56
2022/09/24 11:34:44;;;;;;;;;;;17.60;99.90;;;;;;4181079;28;19932;-56
2022/09/24 11:37:12;;;;;;;;;;;17.50;99.90;;;;;;4189305;28;20066;-57
2022/09/24 11:39:48;;;;;;;;;;;17.10;99.90;;;;;;4181111;28;19979;-58
2022/09/24 11:42:30;;;;;;;;;;;16.90;99.90;;;;;;4180513;28;19979;-58
2022/09/24 11:44:56;;;;;;;;;;;16.60;99.90;;;;;;4180464;28;19938;-59
2022/09/24 11:47:16;;;;;;;;;;;16.50;99.90;;;;;;4186290;28;20708;-61
2022/09/24 11:49:55;;;;;;;;;;;16.40;99.90;;;;;;4191432;28;20454;-59
2022/09/24 11:52:25;;;;;;;;;;;16.20;99.90;;;;;;4181039;28;19932;-59
2022/09/24 11:55:24;;;;;;;;;;;16.10;99.90;;;;;;4180924;28;19936;-60
2022/09/24 11:57:50;;;;;;;;;;;16.00;99.90;;;;;;4129706;28;19969;-60
2022/09/24 12:00:15;;;;;;;;;;;15.70;99.90;;;;;;4143203;28;19937;-59
2022/09/24 12:02:54;;;;;;;;;;;15.70;99.90;;;;;;4145530;28;19936;-59
2022/09/24 12:05:18;;;;;;;;;;;15.80;99.90;;;;;;4145901;28;20340;-56
2022/09/24 12:07:45;;;;;;;;;;;16.50;99.90;;;;;;4145130;28;19980;-56
2022/09/24 12:10:05;;;;;;;;;;;16.50;99.90;;;;;;4129741;28;19932;-57
2022/09/24 12:12:30;;;;;;;;;;;16.00;99.90;;;;;;4139226;28;20029;-57
2022/09/24 12:14:53;;;;;;;;;;;15.60;99.90;;;;;;4137165;28;19932;-57
2022/09/24 12:17:33;;;;;;;;;;;15.10;99.90;;;;;;4129450;28;19999;-58
2022/09/24 12:20:08;;;;;;;;;;;14.80;99.90;;;;;;4129824;28;19984;-56
2022/09/24 12:22:30;;;;;;;;;;;14.70;99.90;;;;;;4142646;28;19937;-56
2022/09/24 12:24:52;;;;;;;;;;;14.60;99.90;;;;;;4145434;28;20003;-56
2022/09/24 12:27:21;;;;;;;;;;;14.50;99.90;;;;;;4141314;28;19945;-57
2022/09/24 12:32:56;;;;;;;;;;;14.50;99.90;;;;;;4196883;28;19931;-57
2022/09/24 12:35:36;;;;;;;;;;;14.40;99.90;;;;;;4182223;28;19939;-55
2022/09/24 12:38:17;;;;;;;;;;;14.40;99.90;;;;;;4180198;28;19932;-56
2022/09/24 12:40:53;;;;;;;;;;;14.50;99.90;;;;;;4185520;28;19931;-55
2022/09/24 12:43:23;;;;;;;;;;;14.30;99.90;;;;;;4164990;28;20069;-55
2022/09/24 12:45:43;;;;;;;;;;;14.30;99.90;;;;;;4180198;28;20022;-55
2022/09/24 12:48:04;;;;;;;;;;;14.20;99.90;;;;;;4184852;28;20008;-57
2022/09/24 12:50:30;;;;;;;;;;;14.20;99.90;;;;;;4180156;28;19935;-57
2022/09/24 12:52:50;;;;;;;;;;;14.20;99.90;;;;;;4180053;28;19994;-57
2022/09/24 12:55:30;;;;;;;;;;;14.20;99.90;;;;;;4180602;28;20284;-58
2022/09/24 12:57:53;;;;;;;;;;;14.10;99.90;;;;;;4183783;28;19944;-57
2022/09/24 13:00:52;;;;;;;;;;;14.10;99.90;;;;;;4183310;28;19935;-57
2022/09/24 13:03:34;;;;;;;;;;;14.10;99.90;;;;;;4146187;28;19936;-57
2022/09/24 13:05:58;;;;;;;;;;;14.20;99.90;;;;;;4148370;28;20053;-58
2022/09/24 13:08:19;;;;;;;;;;;14.40;99.90;;;;;;4148377;28;19931;-57
2022/09/24 13:10:39;;;;;;;;;;;14.20;99.90;;;;;;4132370;28;20019;-57
2022/09/24 13:12:59;;;;;;;;;;;14.10;99.90;;;;;;4141745;28;19936;-57
2022/09/24 13:15:27;;;;;;;;;;;14.30;99.90;;;;;;4148383;28;20333;-57
2022/09/24 13:17:58;;;;;;;;;;;14.20;99.90;;;;;;4148253;28;19939;-57
2022/09/24 13:20:24;;;;;;;;;;;14.10;99.90;;;;;;4118679;28;19933;-57
2022/09/24 13:22:54;;;;;;;;;;;14.30;99.90;;;;;;4143002;28;19937;-58
2022/09/24 13:25:22;;;;;;;;;;;14.30;99.90;;;;;;4145663;28;20422;-57
2022/09/24 13:27:43;;;;;;;;;;;14.10;99.90;;;;;;4147044;28;19948;-58
2022/09/24 13:30:09;;;;;;;;;;;13.90;99.90;;;;;;4148526;28;19933;-58
2022/09/24 13:32:33;;;;;;;;;;;13.80;99.90;;;;;;4143557;28;20452;-57
2022/09/24 13:34:54;;;;;;;;;;;13.90;99.90;;;;;;4169710;28;20372;-58
2022/09/24 13:37:21;;;;;;;;;;;13.90;99.90;;;;;;4183075;28;20012;-58
2022/09/24 13:39:47;;;;;;;;;;;13.90;99.90;;;;;;4182535;28;20023;-58
2022/09/24 13:42:18;;;;;;;;;;;14.00;99.90;;;;;;4193134;28;20029;-58
2022/09/24 13:44:41;;;;;;;;;;;14.20;99.90;;;;;;4182854;28;19936;-58
2022/09/24 13:47:15;;;;;;;;;;;14.10;99.90;;;;;;4185521;28;19947;-58
2022/09/24 13:49:36;;;;;;;;;;;14.20;99.90;;;;;;4183548;28;19935;-58
2022/09/24 13:52:04;;;;;;;;;;;14.10;99.90;;;;;;4182674;28;19931;-58
2022/09/24 13:54:31;;;;;;;;;;;14.30;99.90;;;;;;4182362;28;20178;-58
2022/09/24 13:57:11;;;;;;;;;;;14.30;99.90;;;;;;4182363;28;20368;-58
2022/09/24 13:59:32;;;;;;;;;;;14.30;99.90;;;;;;4190855;28;19934;-58
2022/09/24 14:01:52;;;;;;;;;;;14.20;99.90;;;;;;4197165;28;19932;-58
2022/09/24 14:04:15;;;;;;;;;;;14.20;99.90;;;;;;4186610;28;20395;-58
2022/09/24 14:06:37;;;;;;;;;;;14.20;99.90;;;;;;4182081;28;19935;-58
2022/09/24 14:08:59;;;;;;;;;;;14.30;99.90;;;;;;4182436;28;19974;-58
2022/09/24 14:11:23;;;;;;;;;;;14.40;99.90;;;;;;4183089;28;19931;-58
2022/09/24 14:13:44;;;;;;;;;;;14.40;99.90;;;;;;4182149;28;20393;-58
2022/09/24 14:16:09;;;;;;;;;;;14.30;99.90;;;;;;4186189;28;19935;-58
2022/09/24 14:18:30;;;;;;;;;;;14.30;99.90;;;;;;4190252;28;19932;-58
2022/09/24 14:20:55;;;;;;;;;;;14.30;99.90;;;;;;4185184;28;20036;-58
2022/09/24 14:23:18;;;;;;;;;;;14.20;99.90;;;;;;4183284;28;19943;-57
2022/09/24 14:25:38;;;;;;;;;;;14.10;99.90;;;;;;4181756;28;19947;-57